Time;durP1;ratioP1;P1;durP2;ratioP2;P2;SDS_P1;SDS_P2;PMS_P1;PMS_P2;Temp;Humidity;BMP_temperature;BMP_pressure;BME280_temperature;BME280_humidity;BME280_pressure;Samples;Min_cycle;Max_cycle;Signal;HPM_P1;HPM_P2
2021/07/12 00:02:24;;;;;;;1.75;1.65;;;;;;;23.14;51.84;95775.84;4975411;28;20447;-53
2021/07/12 00:04:49;;;;;;;4.72;1.90;;;;;;;23.13;51.92;95779.63;4988554;28;20033;-52
2021/07/12 00:07:15;;;;;;;2.53;1.73;;;;;;;23.12;51.88;95770.84;4987944;28;20030;-52
2021/07/12 00:09:40;;;;;;;4.70;2.00;;;;;;;23.12;51.97;95776.19;4988027;28;20510;-52
2021/07/12 00:12:06;;;;;;;2.20;1.70;;;;;;;23.12;51.99;95786.13;4977182;28;20042;-52
2021/07/12 00:14:31;;;;;;;2.95;2.10;;;;;;;23.11;51.67;95795.25;4967985;28;20027;-52
2021/07/12 00:16:57;;;;;;;2.92;1.90;;;;;;;23.10;51.82;95802.53;4969060;28;20510;-52
2021/07/12 00:19:22;;;;;;;3.13;1.60;;;;;;;23.10;51.81;95812.44;4968452;28;20023;-53
2021/07/12 00:21:47;;;;;;;2.45;1.95;;;;;;;23.10;51.85;95820.44;4967349;28;20026;-52
2021/07/12 00:24:13;;;;;;;3.40;1.73;;;;;;;23.09;52.07;95832.28;4968501;28;20074;-52
2021/07/12 00:26:39;;;;;;;3.50;2.45;;;;;;;23.07;51.77;95855.94;4968518;28;20030;-52
2021/07/12 00:29:04;;;;;;;5.25;1.73;;;;;;;23.09;51.92;95883.13;4968583;28;20557;-52
2021/07/12 00:31:29;;;;;;;5.45;1.98;;;;;;;23.08;52.17;95919.00;4968259;28;20035;-53
2021/07/12 00:33:55;;;;;;;2.40;1.83;;;;;;;23.07;52.11;95970.97;4968645;28;20035;-52
2021/07/12 00:36:20;;;;;;;3.55;1.77;;;;;;;23.08;52.31;96007.28;4973096;28;20034;-52
2021/07/12 00:38:46;;;;;;;4.20;2.17;;;;;;;23.06;52.11;95993.50;4987069;28;20104;-53
2021/07/12 00:41:11;;;;;;;4.50;1.70;;;;;;;23.06;52.16;95964.06;4987721;28;20042;-52
2021/07/12 00:43:37;;;;;;;2.45;1.60;;;;;;;23.04;52.26;95913.59;4987702;28;20027;-53
2021/07/12 00:46:02;;;;;;;3.63;1.63;;;;;;;23.05;51.79;95885.72;4988076;28;20053;-53
2021/07/12 00:48:28;;;;;;;2.40;1.70;;;;;;;23.05;52.22;95874.25;4987669;28;20053;-53
2021/07/12 00:50:54;;;;;;;2.60;2.00;;;;;;;23.03;51.99;95852.44;4988373;28;20452;-52
2021/07/12 00:53:19;;;;;;;2.25;1.65;;;;;;;23.02;52.39;95848.97;4987392;28;20622;-52
2021/07/12 00:55:46;;;;;;;1.75;1.60;;;;;;;23.02;51.99;95848.19;4987502;28;20483;-53
2021/07/12 00:58:13;;;;;;;2.97;1.80;;;;;;;23.02;52.22;95838.28;4987310;28;20042;-52
2021/07/12 01:00:40;;;;;;;3.25;2.25;;;;;;;23.01;52.12;95820.63;4987946;28;20089;-52
2021/07/12 01:03:05;;;;;;;2.47;1.58;;;;;;;23.01;52.22;95793.13;4987398;28;20057;-52
2021/07/12 01:05:31;;;;;;;2.33;1.85;;;;;;;23.00;52.31;95797.72;4987246;28;20033;-53
2021/07/12 01:08:00;;;;;;;6.57;2.92;;;;;;;23.00;52.20;95778.97;4987866;28;20049;-52
2021/07/12 01:10:25;;;;;;;2.17;1.83;;;;;;;22.99;52.48;95764.06;4987561;28;20486;-52
2021/07/12 01:12:58;;;;;;;3.08;1.70;;;;;;;22.99;52.29;95758.69;4969663;28;20084;-52
2021/07/12 01:15:24;;;;;;;2.15;1.60;;;;;;;22.98;52.13;95741.13;4987325;28;20038;-53
2021/07/12 01:18:06;;;;;;;2.10;1.88;;;;;;;22.98;52.69;95733.09;4986441;28;20084;-53
2021/07/12 01:21:05;;;;;;;1.67;1.58;;;;;;;22.98;52.54;95729.63;4986015;28;20445;-54
2021/07/12 01:23:43;;;;;;;1.85;1.65;;;;;;;22.97;52.41;95704.78;4971749;28;20102;-53
2021/07/12 01:26:44;;;;;;;1.98;1.80;;;;;;;22.96;52.49;95711.28;4987501;28;20029;-53
2021/07/12 01:29:15;;;;;;;1.90;1.63;;;;;;;22.94;52.34;95676.09;4985987;28;20395;-53
2021/07/12 01:32:02;;;;;;;1.90;1.70;;;;;;;22.93;52.65;95616.47;4987505;28;20030;-52
2021/07/12 01:34:36;;;;;;;2.30;1.90;;;;;;;22.93;52.60;95559.53;4987217;28;20038;-53
2021/07/12 01:37:20;;;;;;;4.50;2.70;;;;;;;22.92;52.36;95524.00;4986187;28;20039;-53
2021/07/12 01:39:48;;;;;;;2.08;1.88;;;;;;;22.91;52.69;95460.94;4987193;28;20035;-52
2021/07/12 01:42:27;;;;;;;2.88;1.90;;;;;;;22.91;52.39;95350.53;4986981;28;20494;-53
2021/07/12 01:45:00;;;;;;;2.53;2.08;;;;;;;22.91;52.60;95361.22;4985944;28;20731;-53
2021/07/12 01:47:49;;;;;;;4.95;1.92;;;;;;;22.90;52.45;95341.00;4985933;28;20022;-53
2021/07/12 01:50:26;;;;;;;3.13;2.10;;;;;;;22.89;52.16;95340.19;4988907;28;20018;-53
2021/07/12 01:53:09;;;;;;;2.97;1.92;;;;;;;22.88;52.46;95314.59;4989837;28;20120;-53
2021/07/12 01:55:43;;;;;;;1.95;1.65;;;;;;;22.87;52.57;95334.44;4990656;28;20084;-53
2021/07/12 01:58:24;;;;;;;4.45;2.10;;;;;;;22.87;52.33;95376.47;4989681;28;20034;-53
2021/07/12 02:00:49;;;;;;;3.70;2.10;;;;;;;22.87;52.45;95397.84;4990863;28;20040;-53
2021/07/12 02:03:15;;;;;;;4.13;2.08;;;;;;;22.86;52.61;95441.78;4990215;28;20034;-54
2021/07/12 02:05:41;;;;;;;2.20;1.70;;;;;;;22.87;52.32;95478.06;4990946;28;20034;-52
2021/07/12 02:08:08;;;;;;;3.10;2.00;;;;;;;22.85;52.52;95517.75;4989563;28;20034;-52
2021/07/12 02:10:33;;;;;;;6.25;1.83;;;;;;;22.85;52.29;95539.16;4973210;28;20030;-53
2021/07/12 02:12:58;;;;;;;6.35;2.25;;;;;;;22.85;52.49;95534.56;4988992;28;20049;-53
2021/07/12 02:15:24;;;;;;;4.95;2.30;;;;;;;22.85;52.49;95545.28;4972643;28;20026;-52
2021/07/12 02:17:50;;;;;;;5.72;1.95;;;;;;;22.85;52.57;95541.84;4969407;28;20031;-53
2021/07/12 02:20:15;;;;;;;1.75;1.65;;;;;;;22.84;52.51;95541.06;4953431;28;20615;-54
2021/07/12 02:22:41;;;;;;;9.85;2.13;;;;;;;22.85;52.57;95560.53;4953119;28;20034;-53
2021/07/12 02:25:10;;;;;;;2.58;1.75;;;;;;;22.84;52.59;95569.69;4969784;28;20037;-53
2021/07/12 02:27:35;;;;;;;3.55;1.90;;;;;;;22.84;52.49;95567.81;4953481;28;20122;-54
2021/07/12 02:30:01;;;;;;;3.47;1.90;;;;;;;22.84;52.55;95567.00;4969453;28;20027;-52
2021/07/12 02:32:27;;;;;;;3.83;1.60;;;;;;;22.82;52.41;95546.00;4969459;28;20035;-52
2021/07/12 02:34:53;;;;;;;2.22;2.00;;;;;;;22.83;52.59;95552.13;4969622;28;20122;-52
2021/07/12 02:37:18;;;;;;;5.45;2.28;;;;;;;22.82;52.31;95561.25;4968866;28;20042;-54
2021/07/12 02:39:46;;;;;;;2.55;1.90;;;;;;;22.81;52.74;95557.81;4970471;28;20077;-52
2021/07/12 02:42:11;;;;;;;2.22;1.85;;;;;;;22.82;52.36;95555.91;4970646;28;20041;-52
2021/07/12 02:44:36;;;;;;;3.67;1.90;;;;;;;22.83;52.51;95541.41;4970437;28;20019;-52
2021/07/12 02:47:02;;;;;;;2.58;1.75;;;;;;;22.81;52.68;95533.75;4953315;28;20372;-52
2021/07/12 02:49:28;;;;;;;3.58;1.70;;;;;;;22.81;52.24;95531.06;4969167;28;20514;-53
2021/07/12 02:51:55;;;;;;;4.60;1.98;;;;;;;22.81;52.52;95527.63;4969434;28;20034;-51
2021/07/12 02:54:33;;;;;;;3.10;1.95;;;;;;;22.81;52.37;95543.69;4952567;28;20112;-52
2021/07/12 02:56:59;;;;;;;3.22;2.08;;;;;;;22.80;52.54;95544.78;4968849;28;20554;-52
2021/07/12 02:59:24;;;;;;;2.50;1.60;;;;;;;22.80;52.70;95536.78;4970047;28;20081;-52
2021/07/12 03:01:49;;;;;;;6.25;1.80;;;;;;;22.80;52.74;95534.09;4968270;28;20030;-52
2021/07/12 03:04:15;;;;;;;3.08;1.65;;;;;;;22.79;52.45;95530.66;4969635;28;20031;-52
2021/07/12 03:06:40;;;;;;;2.22;1.63;;;;;;;22.79;52.42;95521.88;4970193;28;20031;-52
2021/07/12 03:09:12;;;;;;;2.75;1.50;;;;;;;22.78;52.90;95513.09;4952580;28;20388;-53
2021/07/12 03:11:56;;;;;;;2.65;2.10;;;;;;;22.79;52.69;95508.50;4968785;28;20034;-52
2021/07/12 03:14:30;;;;;;;2.08;1.70;;;;;;;22.78;52.75;95498.94;4968264;28;20066;-52
2021/07/12 03:16:56;;;;;;;4.78;1.70;;;;;;;22.77;52.71;95516.88;4981763;28;20593;-52
2021/07/12 03:19:25;;;;;;;2.30;1.65;;;;;;;22.76;52.50;95517.22;4971685;28;20030;-52
2021/07/12 03:21:50;;;;;;;2.30;1.67;;;;;;;22.77;52.85;95505.41;4989086;28;20169;-53
2021/07/12 03:24:16;;;;;;;2.58;2.08;;;;;;;22.76;52.75;95495.84;4987601;28;20454;-52
2021/07/12 03:26:44;;;;;;;2.92;1.90;;;;;;;22.74;52.80;95480.94;4971877;28;20034;-52
2021/07/12 03:29:09;;;;;;;2.17;1.67;;;;;;;22.75;52.64;95465.66;4989352;28;20045;-52
2021/07/12 03:31:35;;;;;;;3.10;2.00;;;;;;;22.75;52.72;95465.66;4987739;28;20105;-52
2021/07/12 03:34:00;;;;;;;2.38;1.70;;;;;;;22.74;52.60;95472.16;4987582;28;20103;-52
2021/07/12 03:36:28;;;;;;;2.17;1.98;;;;;;;22.74;52.71;95480.19;4971533;28;20465;-52
2021/07/12 03:38:53;;;;;;;2.72;1.85;;;;;;;22.74;52.57;95496.97;4972131;28;20030;-52
2021/07/12 03:41:19;;;;;;;2.20;1.75;;;;;;;22.74;52.66;95496.22;4988763;28;20514;-52
2021/07/12 03:43:45;;;;;;;2.30;1.75;;;;;;;22.74;52.79;95496.22;4988730;28;20022;-52
2021/07/12 03:46:10;;;;;;;1.67;1.55;;;;;;;22.73;52.81;95486.63;4987471;28;20062;-53
2021/07/12 03:48:43;;;;;;;4.13;1.80;;;;;;;22.73;52.65;95483.97;4988527;28;20081;-52
2021/07/12 03:51:12;;;;;;;1.85;1.60;;;;;;;22.73;52.72;95467.94;4988684;28;20030;-54
2021/07/12 03:53:37;;;;;;;2.97;1.73;;;;;;;22.72;52.59;95463.72;4986783;28;20034;-52
2021/07/12 03:56:03;;;;;;;4.25;1.83;;;;;;;22.72;52.91;95451.13;4988391;28;20073;-53
2021/07/12 03:58:28;;;;;;;1.83;1.67;;;;;;;22.71;52.87;95428.19;4988465;28;20034;-52
2021/07/12 04:00:54;;;;;;;2.03;1.83;;;;;;;22.70;52.84;95434.66;4988774;28;20034;-52
2021/07/12 04:03:19;;;;;;;1.95;1.42;;;;;;;22.71;52.76;95454.91;4988056;28;20026;-53
2021/07/12 04:05:45;;;;;;;1.67;1.55;;;;;;;22.71;53.12;95454.16;4988322;28;20391;-52
2021/07/12 04:08:10;;;;;;;2.80;1.98;;;;;;;22.69;52.61;95427.75;4988231;28;20033;-53
2021/07/12 04:10:37;;;;;;;2.53;1.77;;;;;;;22.69;52.86;95414.41;4987973;28;20026;-52
2021/07/12 04:13:03;;;;;;;2.75;1.90;;;;;;;22.68;52.72;95394.16;4987593;28;20054;-52
2021/07/12 04:15:28;;;;;;;2.33;1.90;;;;;;;22.69;52.59;95381.56;4988158;28;20030;-52
2021/07/12 04:17:54;;;;;;;2.33;2.00;;;;;;;22.69;52.53;95370.84;4988599;28;20402;-53
2021/07/12 04:20:19;;;;;;;2.80;1.80;;;;;;;22.69;52.53;95384.22;4988175;28;20038;-53
2021/07/12 04:22:44;;;;;;;3.80;1.95;;;;;;;22.67;52.75;95389.16;4986476;28;20502;-53
2021/07/12 04:25:11;;;;;;;2.78;1.90;;;;;;;22.67;52.89;95394.50;4987823;28;20033;-52
2021/07/12 04:27:36;;;;;;;2.03;1.70;;;;;;;22.66;52.81;95391.06;4986633;28;20116;-52
2021/07/12 04:30:03;;;;;;;2.10;1.90;;;;;;;22.66;52.92;95391.06;4987805;28;20549;-53
2021/07/12 04:32:29;;;;;;;2.53;2.00;;;;;;;22.66;52.79;95403.69;4987413;28;20109;-53
2021/07/12 04:34:54;;;;;;;2.70;1.48;;;;;;;22.66;53.00;95425.06;4988150;28;20049;-52
2021/07/12 04:37:19;;;;;;;2.63;1.83;;;;;;;22.65;52.88;95450.22;4987895;28;20042;-52
2021/07/12 04:39:45;;;;;;;2.17;1.75;;;;;;;22.65;52.33;95466.25;4987850;28;20031;-53
2021/07/12 04:42:10;;;;;;;2.08;1.83;;;;;;;22.64;52.82;95489.56;4987169;28;20034;-52
2021/07/12 04:44:36;;;;;;;2.10;1.60;;;;;;;22.64;53.21;95494.13;4987738;28;20037;-53
2021/07/12 04:47:01;;;;;;;2.65;1.92;;;;;;;22.62;52.99;95505.19;4987642;28;20030;-53
2021/07/12 04:49:27;;;;;;;2.30;1.80;;;;;;;22.64;52.96;95507.50;4988060;28;20038;-53
2021/07/12 04:51:52;;;;;;;1.77;1.60;;;;;;;22.62;52.81;95504.41;4987721;28;20038;-52
2021/07/12 04:54:18;;;;;;;2.90;1.75;;;;;;;22.62;53.05;95501.75;4987266;28;20442;-52
2021/07/12 04:56:43;;;;;;;2.05;1.63;;;;;;;22.61;52.67;95503.63;4987629;28;20037;-53
2021/07/12 04:59:10;;;;;;;3.55;1.95;;;;;;;22.62;52.61;95523.13;4987553;28;20482;-53
2021/07/12 05:01:36;;;;;;;2.20;1.92;;;;;;;22.61;52.83;95532.25;4987822;28;20033;-54
2021/07/12 05:04:02;;;;;;;2.15;1.67;;;;;;;22.61;52.70;95540.28;4987243;28;20030;-54
2021/07/12 05:06:28;;;;;;;2.60;1.70;;;;;;;22.61;52.90;95553.66;4987534;28;20117;-53
2021/07/12 05:08:54;;;;;;;2.05;1.58;;;;;;;22.59;52.85;95570.03;4986398;28;20022;-53
2021/07/12 05:11:19;;;;;;;5.13;2.00;;;;;;;22.60;53.29;95586.88;4985438;28;20749;-54
2021/07/12 05:13:45;;;;;;;3.17;2.15;;;;;;;22.59;53.15;95586.06;4986908;28;20034;-54
2021/07/12 05:16:10;;;;;;;3.83;2.00;;;;;;;22.60;52.95;95602.91;4985839;28;20032;-55
2021/07/12 05:18:39;;;;;;;4.68;2.35;;;;;;;22.59;53.25;95586.06;4987361;28;20042;-54
2021/07/12 05:21:05;;;;;;;7.00;2.33;;;;;;;22.60;53.49;95594.88;4986033;28;20093;-53
2021/07/12 05:23:30;;;;;;;4.70;2.40;;;;;;;22.59;53.47;95586.06;4986804;28;20030;-53
2021/07/12 05:25:56;;;;;;;4.20;2.00;;;;;;;22.59;53.49;95585.31;4976892;28;20027;-52
2021/07/12 05:28:22;;;;;;;5.05;2.30;;;;;;;22.59;53.48;95585.31;4978755;28;20049;-52
2021/07/12 05:30:47;;;;;;;5.05;2.33;;;;;;;22.59;53.71;95590.66;4990660;28;20434;-52
2021/07/12 05:33:12;;;;;;;4.93;1.90;;;;;;;22.59;53.45;95591.41;4990116;28;20113;-52
2021/07/12 05:35:38;;;;;;;4.30;1.83;;;;;;;22.60;53.47;95587.63;4990580;28;20034;-53
2021/07/12 05:38:04;;;;;;;7.93;2.40;;;;;;;22.60;53.63;95581.50;4990547;28;20094;-52
2021/07/12 05:40:30;;;;;;;6.03;2.33;;;;;;;22.61;53.60;95569.69;4990426;28;20410;-53
2021/07/12 05:42:55;;;;;;;4.95;2.70;;;;;;;22.59;53.66;95562.00;4990650;28;20030;-53
2021/07/12 05:45:21;;;;;;;4.68;2.20;;;;;;;22.59;53.75;95545.22;4989305;28;20038;-52
2021/07/12 05:47:46;;;;;;;7.60;2.30;;;;;;;22.61;53.30;95545.63;4990066;28;20034;-53
2021/07/12 05:50:14;;;;;;;7.03;2.30;;;;;;;22.60;53.52;95528.81;4989705;28;20034;-52
2021/07/12 05:52:39;;;;;;;3.67;2.25;;;;;;;22.60;53.76;95528.81;4987489;28;20508;-52
2021/07/12 05:55:05;;;;;;;4.50;2.30;;;;;;;22.61;53.38;95542.94;4989023;28;20030;-53
2021/07/12 05:57:31;;;;;;;4.60;2.28;;;;;;;22.60;53.69;95536.09;4989924;28;20807;-53
2021/07/12 05:59:56;;;;;;;3.03;2.17;;;;;;;22.59;53.30;95537.97;4990683;28;20038;-53
2021/07/12 06:02:22;;;;;;;2.30;2.10;;;;;;;22.60;53.26;95546.78;4989553;28;20034;-53
2021/07/12 06:04:47;;;;;;;3.30;2.40;;;;;;;22.60;53.36;95552.13;4982833;28;20034;-52
2021/07/12 06:07:13;;;;;;;3.13;2.20;;;;;;;22.60;53.56;95549.44;4970976;28;20027;-53
2021/07/12 06:09:38;;;;;;;3.35;2.22;;;;;;;22.59;53.16;95550.56;4971063;28;20027;-53
2021/07/12 06:12:04;;;;;;;3.00;2.42;;;;;;;22.60;53.20;95554.78;4970520;28;20038;-52
2021/07/12 06:14:30;;;;;;;4.10;2.55;;;;;;;22.59;53.40;95570.03;4970189;28;20035;-52
2021/07/12 06:16:55;;;;;;;4.72;2.63;;;;;;;22.58;52.95;95573.84;4982065;28;20038;-53
2021/07/12 06:19:21;;;;;;;3.75;2.40;;;;;;;22.58;52.97;95583.75;4971648;28;20090;-53
2021/07/12 06:21:46;;;;;;;6.57;2.70;;;;;;;22.58;52.91;95578.41;4969653;28;20418;-53
2021/07/12 06:24:12;;;;;;;2.65;2.22;;;;;;;22.57;52.90;95584.88;4975627;28;20497;-52
2021/07/12 06:26:37;;;;;;;2.78;2.45;;;;;;;22.57;52.72;95584.88;4989488;28;20026;-52
2021/07/12 06:29:02;;;;;;;4.38;2.65;;;;;;;22.57;52.50;95587.56;4989879;28;20056;-53
2021/07/12 06:31:28;;;;;;;4.05;2.40;;;;;;;22.56;52.44;95594.81;4989766;28;20526;-53
2021/07/12 06:33:53;;;;;;;2.97;2.33;;;;;;;22.56;52.71;95596.69;4989670;28;20121;-53
2021/07/12 06:36:19;;;;;;;3.08;2.17;;;;;;;22.56;52.38;95594.00;4987237;28;20054;-52
2021/07/12 06:38:44;;;;;;;5.07;2.40;;;;;;;22.55;52.53;95585.22;4989538;28;20054;-52
2021/07/12 06:41:09;;;;;;;4.00;2.50;;;;;;;22.54;52.49;95605.84;4984722;28;20475;-52
2021/07/12 06:43:35;;;;;;;3.22;2.60;;;;;;;22.54;52.24;95595.16;4970371;28;20058;-53
2021/07/12 06:46:01;;;;;;;6.30;2.72;;;;;;;22.53;52.43;95588.25;4970221;28;20023;-53
2021/07/12 06:48:27;;;;;;;4.22;2.60;;;;;;;22.52;52.42;95584.06;4970453;28;20403;-51
2021/07/12 06:50:53;;;;;;;3.15;2.38;;;;;;;22.53;52.48;95582.91;4969358;28;20026;-52
2021/07/12 06:53:19;;;;;;;4.22;2.78;;;;;;;22.52;52.44;95585.97;4981540;28;20482;-52
2021/07/12 06:55:44;;;;;;;5.28;2.53;;;;;;;22.51;52.21;95579.06;4989260;28;20102;-53
2021/07/12 06:58:11;;;;;;;8.05;2.70;;;;;;;22.51;52.47;95590.50;4989212;28;20506;-52
2021/07/12 07:00:37;;;;;;;8.25;2.67;;;;;;;22.50;52.51;95599.66;4989150;28;20026;-53
2021/07/12 07:03:02;;;;;;;6.68;3.10;;;;;;;22.50;52.33;95586.31;5021199;28;20149;-52
2021/07/12 07:05:28;;;;;;;4.65;3.00;;;;;;;22.50;52.65;95598.91;4988873;28;20108;-52
2021/07/12 07:07:54;;;;;;;6.18;3.33;;;;;;;22.50;52.28;95604.25;4989640;28;20027;-52
2021/07/12 07:10:19;;;;;;;5.35;2.70;;;;;;;22.46;52.24;95596.16;4989077;28;20438;-52
2021/07/12 07:12:44;;;;;;;4.80;2.90;;;;;;;22.43;52.50;95598.75;4989164;28;20080;-52
2021/07/12 07:15:10;;;;;;;5.60;2.80;;;;;;;22.40;52.23;95600.25;4988922;28;20088;-52
2021/07/12 07:17:36;;;;;;;4.50;2.95;;;;;;;22.37;52.64;95595.59;4986317;28;20030;-52
2021/07/12 07:20:02;;;;;;;4.63;2.70;;;;;;;22.33;52.90;95605.44;4986656;28;20035;-52
2021/07/12 07:22:27;;;;;;;3.53;2.70;;;;;;;22.29;52.64;95608.03;4978088;28;20065;-53
2021/07/12 07:24:53;;;;;;;6.25;3.03;;;;;;;22.27;52.83;95612.94;4983091;28;20487;-53
2021/07/12 07:27:18;;;;;;;6.20;2.92;;;;;;;22.25;53.19;95617.88;4980201;28;20842;-53
2021/07/12 07:29:45;;;;;;;7.68;3.45;;;;;;;22.24;53.18;95620.91;4988901;28;20046;-53
2021/07/12 07:32:10;;;;;;;4.45;2.70;;;;;;;22.22;53.35;95626.56;4988385;28;20033;-52
2021/07/12 07:34:35;;;;;;;7.10;2.80;;;;;;;22.19;53.45;95629.94;4970966;28;20411;-53
2021/07/12 07:37:01;;;;;;;6.70;3.15;;;;;;;22.18;53.59;95633.75;4986784;28;20030;-52
2021/07/12 07:39:26;;;;;;;4.68;2.50;;;;;;;22.14;53.75;95633.66;4980894;28;20080;-53
2021/07/12 07:41:53;;;;;;;4.28;2.90;;;;;;;22.13;53.50;95632.13;4985489;28;20118;-52
2021/07/12 07:44:19;;;;;;;4.60;2.88;;;;;;;22.15;53.61;95658.47;4988230;28;20166;-53
2021/07/12 07:46:44;;;;;;;4.68;3.00;;;;;;;22.16;53.63;95635.22;4928759;28;20051;-54
2021/07/12 07:49:10;;;;;;;5.75;2.83;;;;;;;22.18;53.61;95649.78;4967998;28;20037;-53
2021/07/12 07:51:37;;;;;;;8.68;2.80;;;;;;;22.19;53.69;95651.31;4981344;28;20505;-52
2021/07/12 07:54:04;;;;;;;5.18;3.10;;;;;;;22.22;53.47;95665.88;4987669;28;20026;-52
2021/07/12 07:56:29;;;;;;;7.55;3.03;;;;;;;22.23;53.66;95654.06;4988946;28;20022;-53
2021/07/12 07:58:55;;;;;;;7.03;3.20;;;;;;;22.26;53.57;95656.06;4988617;28;20038;-53
2021/07/12 08:01:20;;;;;;;9.75;2.95;;;;;;;22.26;53.86;95658.75;4988277;28;20034;-52
2021/07/12 08:03:46;;;;;;;8.05;2.88;;;;;;;22.28;53.50;95656.50;4988234;28;20731;-52
2021/07/12 08:06:11;;;;;;;5.72;2.97;;;;;;;22.29;53.57;95640.09;4987693;28;20113;-52
2021/07/12 08:08:37;;;;;;;4.70;2.70;;;;;;;22.31;53.63;95634.41;4988100;28;20406;-52
2021/07/12 08:11:02;;;;;;;6.10;3.03;;;;;;;22.33;53.36;95630.28;4988209;28;20038;-52
2021/07/12 08:13:27;;;;;;;6.93;2.75;;;;;;;22.33;53.23;95632.94;4989288;28;20410;-52
2021/07/12 08:15:53;;;;;;;4.65;2.72;;;;;;;22.35;53.20;95619.22;4990871;28;20030;-52
2021/07/12 08:18:18;;;;;;;6.45;2.78;;;;;;;22.37;53.18;95616.19;4997567;28;20030;-52
2021/07/12 08:20:45;;;;;;;5.18;2.83;;;;;;;22.38;53.47;95602.50;4987686;28;20030;-53
2021/07/12 08:23:12;;;;;;;9.13;3.30;;;;;;;22.40;53.21;95605.59;4987893;28;20029;-52
2021/07/12 08:25:37;;;;;;;4.00;2.78;;;;;;;22.41;53.16;95601.78;4987569;28;20038;-52
2021/07/12 08:28:04;;;;;;;4.57;2.60;;;;;;;22.43;53.26;95606.78;4987754;28;20410;-53
2021/07/12 08:30:29;;;;;;;4.90;2.72;;;;;;;22.43;52.99;95612.88;4987678;28;20022;-52
2021/07/12 08:32:54;;;;;;;6.53;2.78;;;;;;;22.43;53.42;95604.88;4988023;28;20054;-52
2021/07/12 08:35:20;;;;;;;3.47;2.55;;;;;;;22.45;53.28;95607.94;4987519;28;20026;-53
2021/07/12 08:37:49;;;;;;;4.70;2.45;;;;;;;22.46;53.13;95608.75;4987271;28;20462;-52
2021/07/12 08:40:15;;;;;;;4.25;2.83;;;;;;;22.47;53.18;95600.34;4987038;28;20487;-53
2021/07/12 08:42:40;;;;;;;5.80;2.75;;;;;;;22.48;53.09;95599.25;4987402;28;20049;-53
2021/07/12 08:45:06;;;;;;;3.55;2.83;;;;;;;22.49;53.07;95595.44;4987583;28;20481;-52
2021/07/12 08:47:32;;;;;;;2.70;2.35;;;;;;;22.50;53.23;95578.28;4987439;28;20124;-52
2021/07/12 08:49:57;;;;;;;3.83;2.60;;;;;;;22.50;53.04;95578.28;4988084;28;20033;-53
2021/07/12 08:52:22;;;;;;;4.35;3.08;;;;;;;22.53;53.25;95585.59;4987492;28;20446;-52
2021/07/12 08:54:48;;;;;;;3.47;2.20;;;;;;;22.54;52.91;95586.38;4987282;28;20594;-52
2021/07/12 08:57:13;;;;;;;2.70;2.40;;;;;;;22.55;53.04;95587.91;4986994;28;20035;-53
2021/07/12 08:59:40;;;;;;;3.10;2.42;;;;;;;22.56;53.12;95591.34;4986674;28;20041;-52
2021/07/12 09:02:08;;;;;;;3.60;2.75;;;;;;;22.57;53.29;95598.25;4987564;28;20053;-53
2021/07/12 09:04:35;;;;;;;3.28;2.40;;;;;;;22.58;53.02;95591.75;4986856;28;20026;-52
2021/07/12 09:07:02;;;;;;;3.17;2.70;;;;;;;22.59;53.26;95593.31;4987158;28;20030;-53
2021/07/12 09:09:27;;;;;;;5.10;2.35;;;;;;;22.61;53.00;95593.75;4986396;28;20065;-53
2021/07/12 09:11:53;;;;;;;4.47;2.38;;;;;;;22.62;53.04;95595.31;4987531;28;20537;-52
2021/07/12 09:14:18;;;;;;;4.80;2.67;;;;;;;22.62;53.08;95595.31;4986377;28;20852;-57
2021/07/12 09:16:51;;;;;;;3.92;2.65;;;;;;;22.64;53.21;95587.69;4985717;28;20027;-53
2021/07/12 09:19:20;;;;;;;4.18;2.60;;;;;;;22.64;53.79;95580.44;4983615;28;20445;-52
2021/07/12 09:22:01;;;;;;;8.00;2.90;;;;;;;22.65;54.03;95579.31;4987209;28;20037;-52
2021/07/12 09:24:49;;;;;;;7.55;2.88;;;;;;;22.66;54.11;95574.75;4986983;28;20061;-52
2021/07/12 09:27:19;;;;;;;6.40;3.20;;;;;;;22.68;54.37;95564.47;4986534;28;20774;-52
2021/07/12 09:29:46;;;;;;;4.45;2.85;;;;;;;22.70;54.48;95562.22;4985685;28;20029;-52
2021/07/12 09:32:16;;;;;;;4.97;2.90;;;;;;;22.72;54.67;95558.06;4986401;28;20026;-53
2021/07/12 09:34:41;;;;;;;9.27;3.75;;;;;;;22.73;54.73;95559.59;4986370;28;20035;-52
2021/07/12 09:37:07;;;;;;;3.38;2.72;;;;;;;22.74;54.40;95561.16;4986826;28;20049;-52
2021/07/12 09:39:45;;;;;;;3.30;3.00;;;;;;;22.78;54.80;95552.41;4987935;28;20095;-53
2021/07/12 09:42:16;;;;;;;3.65;2.75;;;;;;;22.80;54.61;95563.50;4997490;28;20045;-53
2021/07/12 09:44:43;;;;;;;7.88;3.40;;;;;;;22.82;54.41;95562.03;4994305;28;20031;-52
2021/07/12 09:47:11;;;;;;;11.32;2.92;;;;;;;22.84;54.60;95569.69;4986705;28;20038;-53
2021/07/12 09:49:37;;;;;;;6.10;2.95;;;;;;;22.86;54.10;95565.53;4987076;28;20046;-53
2021/07/12 09:52:04;;;;;;;6.85;2.60;;;;;;;22.88;54.00;95568.63;4986906;28;20494;-52
2021/07/12 09:54:33;;;;;;;4.65;2.80;;;;;;;22.90;54.05;95565.63;4986418;28;20034;-52
2021/07/12 09:57:09;;;;;;;5.47;2.97;;;;;;;22.91;54.37;95565.22;4988900;28;20045;-52
2021/07/12 09:59:35;;;;;;;6.35;3.17;;;;;;;22.94;54.10;95569.88;4986995;28;20031;-53
2021/07/12 10:02:01;;;;;;;7.10;2.80;;;;;;;22.97;54.08;95571.06;4987013;28;20038;-52
2021/07/12 10:04:27;;;;;;;6.72;2.90;;;;;;;22.98;54.27;95575.28;4986749;28;20483;-53
2021/07/12 10:06:53;;;;;;;8.18;3.10;;;;;;;23.00;53.98;95573.03;4986870;28;20034;-53
2021/07/12 10:09:23;;;;;;;6.43;3.10;;;;;;;23.03;54.27;95576.91;4986735;28;20030;-52
2021/07/12 10:11:52;;;;;;;4.97;2.75;;;;;;;23.03;53.83;95564.31;4987229;28;20117;-52
2021/07/12 10:14:18;;;;;;;6.10;3.28;;;;;;;23.05;53.73;95569.31;4991042;28;20397;-54
2021/07/12 10:16:44;;;;;;;5.25;2.90;;;;;;;23.07;54.07;95569.72;4994033;28;20034;-53
2021/07/12 10:19:09;;;;;;;4.15;2.92;;;;;;;23.09;54.22;95564.78;4989514;28;20031;-53
2021/07/12 10:21:45;;;;;;;5.95;3.05;;;;;;;23.11;53.80;95565.97;4989550;28;20026;-55
2021/07/12 10:24:10;;;;;;;6.68;3.10;;;;;;;23.13;54.01;95565.63;4986408;28;20027;-55
2021/07/12 10:26:43;;;;;;;4.28;2.85;;;;;;;23.15;54.05;95566.03;4988299;28;20023;-58
2021/07/12 10:29:13;;;;;;;4.60;2.80;;;;;;;23.17;53.48;95566.44;4987546;28;20026;-57
2021/07/12 10:31:56;;;;;;;5.13;2.95;;;;;;;23.20;53.91;95571.09;4989784;28;20018;-55
2021/07/12 10:34:31;;;;;;;7.63;3.33;;;;;;;23.23;53.63;95569.59;4989483;28;20121;-57
2021/07/12 10:36:58;;;;;;;7.43;2.50;;;;;;;23.25;53.50;95548.59;4989826;28;20129;-55
2021/07/12 10:40:04;;;;;;;6.43;2.78;;;;;;;23.27;53.43;95554.38;4990108;28;20125;-54
2021/07/12 10:42:45;;;;;;;5.75;2.65;;;;;;;23.29;53.59;95555.53;4988652;28;20546;-58
2021/07/12 10:45:13;;;;;;;4.72;2.70;;;;;;;23.31;53.69;95547.16;4989838;28;20033;-54
2021/07/12 10:47:49;;;;;;;4.57;2.90;;;;;;;23.34;53.72;95549.09;4989099;28;20117;-55
2021/07/12 10:50:48;;;;;;;4.82;3.38;;;;;;;23.36;53.58;95546.06;4989431;28;20080;-54
2021/07/12 10:53:13;;;;;;;5.13;3.28;;;;;;;23.38;53.35;95549.16;4987179;28;20062;-54
2021/07/12 10:55:39;;;;;;;9.30;3.25;;;;;;;23.41;53.75;95559.16;4987006;28;20062;-55
2021/07/12 10:58:32;;;;;;;4.78;2.78;;;;;;;23.42;53.33;95556.13;4987187;28;20030;-57
2021/07/12 11:01:02;;;;;;;3.53;2.60;;;;;;;23.43;53.33;95546.19;4989846;28;20553;-57
2021/07/12 11:03:37;;;;;;;4.60;2.90;;;;;;;23.45;53.42;95543.91;4989334;28;20414;-55
2021/07/12 11:06:03;;;;;;;5.88;3.90;;;;;;;23.46;53.43;95543.56;4989400;28;20033;-57
2021/07/12 11:08:52;;;;;;;5.10;2.80;;;;;;;23.49;53.71;95547.41;4989583;28;20034;-57
2021/07/12 11:11:20;;;;;;;4.82;3.08;;;;;;;23.50;53.27;95551.63;4989929;28;20371;-59
2021/07/12 11:14:02;;;;;;;3.95;2.90;;;;;;;23.50;53.53;95552.41;4989934;28;20034;-59
2021/07/12 11:16:41;;;;;;;3.83;2.83;;;;;;;23.53;53.24;95550.91;4997166;28;20041;-52
2021/07/12 11:19:27;;;;;;;6.25;2.92;;;;;;;23.55;53.38;95547.88;4992907;28;20038;-52
2021/07/12 11:22:13;;;;;;;4.45;2.85;;;;;;;23.56;53.25;95549.41;4992007;28;20513;-52
2021/07/12 11:25:03;;;;;;;3.58;2.67;;;;;;;23.58;52.93;95542.56;4988033;28;20042;-51
2021/07/12 11:27:35;;;;;;;5.25;2.78;;;;;;;23.60;53.31;95547.56;4987887;28;20019;-52
2021/07/12 11:30:24;;;;;;;4.65;2.50;;;;;;;23.60;53.22;95545.63;4989310;28;20093;-52
2021/07/12 11:32:49;;;;;;;5.20;2.67;;;;;;;23.63;53.10;95544.16;4989270;28;20560;-53
2021/07/12 11:35:15;;;;;;;3.47;2.60;;;;;;;23.63;53.23;95541.50;4989031;28;20034;-54
2021/07/12 11:37:40;;;;;;;3.25;2.30;;;;;;;23.65;53.08;95541.91;4989031;28;20478;-52
2021/07/12 11:40:07;;;;;;;2.50;2.22;;;;;;;23.65;52.80;95529.28;4987961;28;20483;-53